createdAt,value
2017-07-02T00:02:02.330Z,59.80
2017-07-02T00:04:29.919Z,60.10
2017-07-02T00:06:57.501Z,60.30
2017-07-02T00:09:25.837Z,60.50
2017-07-02T00:11:53.426Z,60.40
2017-07-02T00:14:21.776Z,61.00
2017-07-02T00:16:49.627Z,60.90
2017-07-02T00:19:17.187Z,61.40
2017-07-02T00:21:44.759Z,61.70
2017-07-02T00:24:12.345Z,61.80
2017-07-02T00:26:40.691Z,62.40
2017-07-02T00:29:08.265Z,62.40
2017-07-02T00:31:35.829Z,62.70
2017-07-02T00:34:03.401Z,63.20
2017-07-02T00:36:31.729Z,64.40
2017-07-02T00:38:59.280Z,64.40
2017-07-02T00:41:26.847Z,64.90
2017-07-02T00:43:54.402Z,65.70
2017-07-02T00:46:21.990Z,66.00
2017-07-02T00:48:49.579Z,66.40
2017-07-02T00:51:17.926Z,66.70
2017-07-02T00:53:45.491Z,66.70
2017-07-02T00:56:13.438Z,66.80
2017-07-02T00:58:41.001Z,67.10
2017-07-02T01:01:08.557Z,67.30
2017-07-02T01:03:36.144Z,67.40
2017-07-02T01:06:04.471Z,67.80
2017-07-02T01:08:32.037Z,67.80
2017-07-02T01:10:59.628Z,68.00
2017-07-02T01:13:27.571Z,68.20
2017-07-02T01:15:55.120Z,68.30
2017-07-02T01:18:22.677Z,68.50
2017-07-02T01:20:50.260Z,68.80
2017-07-02T01:23:17.823Z,69.20
2017-07-02T01:25:45.409Z,69.00
2017-07-02T01:28:13.741Z,70.10
2017-07-02T01:30:41.615Z,70.10
2017-07-02T01:33:09.174Z,71.50
2017-07-02T01:35:36.738Z,71.00
2017-07-02T01:38:04.309Z,71.40
2017-07-02T01:40:31.861Z,72.00
2017-07-02T01:42:59.431Z,72.90
2017-07-02T01:45:27.781Z,75.10
2017-07-02T01:47:55.626Z,74.70
2017-07-02T01:50:23.214Z,75.80
2017-07-02T01:52:50.787Z,77.50
2017-07-02T01:55:18.374Z,78.40
2017-07-02T01:57:45.957Z,79.50
2017-07-02T02:00:13.532Z,79.60
2017-07-02T02:03:03.587Z,80.90
2017-07-02T02:05:31.171Z,81.90
2017-07-02T02:07:58.735Z,82.50
2017-07-02T02:10:26.624Z,82.60
2017-07-02T02:12:54.208Z,82.60
2017-07-02T02:15:22.562Z,83.50
2017-07-02T02:17:50.152Z,83.50
2017-07-02T02:20:17.728Z,83.50
2017-07-02T02:22:45.316Z,84.40
2017-07-02T02:25:12.893Z,84.90
2017-07-02T02:27:40.464Z,85.10
2017-07-02T02:30:08.038Z,85.50
2017-07-02T02:32:36.678Z,85.90
2017-07-02T02:35:04.260Z,85.90
2017-07-02T02:37:31.834Z,86.00
2017-07-02T02:40:00.173Z,85.70
2017-07-02T02:42:27.729Z,85.60
2017-07-02T02:44:55.296Z,85.70
2017-07-02T02:47:22.857Z,86.00
2017-07-02T02:49:50.436Z,86.20
2017-07-02T02:52:18.013Z,85.80
2017-07-02T02:54:46.659Z,86.30
2017-07-02T02:57:14.220Z,86.30
2017-07-02T02:59:41.813Z,86.70
2017-07-02T03:02:10.152Z,86.80
2017-07-02T03:04:37.726Z,86.60
2017-07-02T03:07:05.301Z,86.80
2017-07-02T03:09:33.619Z,87.00
2017-07-02T03:12:01.197Z,87.00
2017-07-02T03:14:28.756Z,87.10
2017-07-02T03:16:56.737Z,88.00
2017-07-02T03:19:24.339Z,88.10
2017-07-02T03:21:52.689Z,88.80
2017-07-02T03:24:20.256Z,88.80
2017-07-02T03:26:48.581Z,90.10
2017-07-02T03:29:16.159Z,89.70
2017-07-02T03:31:43.730Z,89.70
2017-07-02T03:34:11.316Z,89.50
2017-07-02T03:36:39.638Z,90.00
2017-07-02T03:39:07.214Z,89.90
2017-07-02T03:41:34.786Z,90.10
2017-07-02T03:44:02.353Z,90.00
2017-07-02T03:46:29.936Z,89.90
2017-07-02T03:48:58.284Z,90.10
2017-07-02T03:51:25.880Z,90.10
2017-07-02T03:53:53.452Z,90.10
2017-07-02T03:56:21.021Z,90.00
2017-07-02T03:58:48.578Z,90.00
2017-07-02T04:01:16.143Z,89.90
2017-07-02T04:03:43.708Z,89.70
2017-07-02T04:06:11.290Z,89.80
2017-07-02T04:08:38.879Z,89.90
2017-07-02T04:11:07.226Z,89.60
2017-07-02T04:13:34.794Z,89.60
2017-07-02T04:16:02.385Z,89.50
2017-07-02T04:18:29.965Z,89.40
2017-07-02T04:20:57.534Z,89.20
2017-07-02T04:23:25.226Z,89.20
2017-07-02T04:25:52.791Z,89.50
2017-07-02T04:28:20.362Z,89.40
2017-07-02T04:30:48.717Z,89.30
2017-07-02T04:33:16.303Z,89.30
2017-07-02T04:35:44.652Z,89.30
2017-07-02T04:38:12.224Z,89.20
2017-07-02T04:40:39.800Z,89.00
2017-07-02T04:43:08.140Z,88.90
2017-07-02T04:45:35.720Z,88.80
2017-07-02T04:48:03.325Z,88.40
2017-07-02T04:50:30.888Z,88.10
2017-07-02T04:52:58.781Z,87.70
2017-07-02T04:55:26.344Z,87.60
2017-07-02T04:57:53.923Z,87.70
2017-07-02T05:00:21.515Z,87.60
2017-07-02T05:02:49.091Z,88.00
2017-07-02T05:05:16.680Z,88.70
2017-07-02T05:07:44.244Z,89.40
2017-07-02T05:10:11.822Z,89.60
2017-07-02T05:12:40.270Z,90.20
2017-07-02T05:15:08.125Z,90.30
2017-07-02T05:17:35.694Z,90.70
2017-07-02T05:20:03.280Z,90.80
2017-07-02T05:22:30.879Z,91.10
2017-07-02T05:24:58.443Z,91.10
2017-07-02T05:27:26.022Z,91.30
2017-07-02T05:29:53.600Z,91.30
2017-07-02T05:32:21.198Z,91.10
2017-07-02T05:34:48.781Z,91.30
2017-07-02T05:37:16.705Z,91.40
2017-07-02T05:39:44.288Z,91.50
2017-07-02T05:42:12.623Z,91.70
2017-07-02T05:44:40.193Z,91.70
2017-07-02T05:47:07.763Z,91.80
2017-07-02T05:49:35.346Z,91.90
2017-07-02T05:52:02.898Z,92.20
2017-07-02T05:54:31.297Z,92.70
2017-07-02T05:56:58.885Z,92.70
2017-07-02T05:59:26.455Z,92.90
2017-07-02T06:01:54.045Z,92.70
2017-07-02T06:04:22.384Z,93.20
2017-07-02T06:06:49.961Z,93.10
2017-07-02T06:09:17.540Z,93.10
2017-07-02T06:11:45.934Z,93.00
2017-07-02T06:14:13.514Z,92.90
2017-07-02T06:16:41.095Z,93.10
2017-07-02T06:19:08.680Z,93.00
2017-07-02T06:21:36.257Z,93.10
2017-07-02T06:24:03.833Z,93.00
2017-07-02T06:26:31.416Z,93.00
2017-07-02T06:28:59.298Z,93.20
2017-07-02T06:31:26.896Z,93.20
2017-07-02T06:33:55.227Z,93.30
2017-07-02T06:36:22.821Z,93.30
2017-07-02T06:38:51.175Z,93.80
2017-07-02T06:41:18.746Z,93.60
2017-07-02T06:43:46.314Z,93.70
2017-07-02T06:46:14.185Z,93.60
2017-07-02T06:48:41.751Z,93.40
2017-07-02T06:51:10.083Z,93.50
2017-07-02T06:53:37.657Z,93.50
2017-07-02T06:56:05.223Z,93.70
2017-07-02T06:58:32.800Z,93.70
2017-07-02T07:01:01.131Z,93.50
2017-07-02T07:03:29.017Z,93.50
2017-07-02T07:05:56.581Z,93.40
2017-07-02T07:08:24.142Z,93.40
2017-07-02T07:10:51.718Z,93.50
2017-07-02T07:13:20.081Z,93.50
2017-07-02T07:15:48.075Z,93.30
2017-07-02T07:18:15.639Z,92.90
2017-07-02T07:20:44.061Z,93.00
2017-07-02T07:23:11.661Z,93.00
2017-07-02T07:25:40.013Z,92.90
2017-07-02T07:28:07.582Z,92.60
2017-07-02T07:30:35.165Z,92.90
2017-07-02T07:33:03.814Z,92.60
2017-07-02T07:35:31.547Z,92.60
2017-07-02T07:37:59.177Z,92.90
2017-07-02T07:40:27.551Z,92.80
2017-07-02T07:42:55.885Z,92.70
2017-07-02T07:45:23.486Z,92.70
2017-07-02T07:47:51.848Z,92.80
2017-07-02T07:50:19.453Z,92.70
2017-07-02T07:52:47.029Z,92.80
2017-07-02T07:55:14.610Z,92.40
2017-07-02T07:57:42.245Z,92.40
2017-07-02T08:00:09.839Z,93.00
2017-07-02T08:02:37.404Z,92.50
2017-07-02T08:05:04.967Z,92.20
2017-07-02T08:07:32.534Z,92.40
2017-07-02T08:10:00.881Z,92.00
2017-07-02T08:12:28.446Z,91.80
2017-07-02T08:14:56.039Z,91.80
2017-07-02T08:17:23.639Z,92.00
2017-07-02T08:19:51.215Z,91.80
2017-07-02T08:22:18.798Z,91.80
2017-07-02T08:24:46.369Z,91.10
2017-07-02T08:27:14.721Z,91.50
2017-07-02T08:29:42.327Z,91.50
2017-07-02T08:32:10.180Z,91.40
2017-07-02T08:34:38.530Z,90.90
2017-07-02T08:37:06.103Z,90.90
2017-07-02T08:39:34.478Z,90.60
2017-07-02T08:42:02.065Z,90.60
2017-07-02T08:44:29.667Z,90.60
2017-07-02T08:46:57.244Z,90.60
2017-07-02T08:49:25.104Z,90.80
2017-07-02T08:51:52.719Z,90.30
2017-07-02T08:54:20.325Z,90.50
2017-07-02T08:56:47.909Z,90.90
2017-07-02T08:59:16.289Z,91.10
2017-07-02T09:01:44.631Z,90.50
2017-07-02T09:04:12.210Z,90.50
2017-07-02T09:06:40.161Z,90.70
2017-07-02T09:09:07.719Z,91.00
2017-07-02T09:11:35.289Z,90.80
2017-07-02T09:14:02.862Z,90.90
2017-07-02T09:16:31.190Z,90.20
2017-07-02T09:18:58.836Z,90.10
2017-07-02T09:21:26.444Z,90.30
2017-07-02T09:23:54.394Z,90.20
2017-07-02T09:26:21.954Z,90.10
2017-07-02T09:28:49.508Z,90.30
2017-07-02T09:31:17.080Z,90.20
2017-07-02T09:33:44.686Z,90.10
2017-07-02T09:36:12.280Z,90.40
2017-07-02T09:38:39.934Z,90.30
2017-07-02T09:41:07.773Z,90.50
2017-07-02T09:43:35.357Z,90.20
2017-07-02T09:46:02.915Z,90.00
2017-07-02T09:48:30.498Z,90.00
2017-07-02T09:50:58.084Z,89.40
2017-07-02T09:53:26.747Z,88.70
2017-07-02T09:55:54.337Z,88.50
2017-07-02T09:58:22.680Z,88.40
2017-07-02T10:00:50.249Z,88.40
2017-07-02T10:03:17.817Z,88.20
2017-07-02T10:05:45.389Z,88.70
2017-07-02T10:08:12.971Z,89.30
2017-07-02T10:10:40.810Z,88.90
2017-07-02T10:13:08.392Z,87.70
2017-07-02T10:15:35.955Z,86.50
2017-07-02T10:18:03.541Z,86.00
2017-07-02T10:20:31.139Z,86.00
2017-07-02T10:22:59.502Z,86.80
2017-07-02T10:25:27.093Z,86.80
2017-07-02T10:27:55.710Z,89.20
2017-07-02T10:30:23.299Z,89.20
2017-07-02T10:32:50.925Z,89.80
2017-07-02T10:35:18.528Z,90.00
2017-07-02T10:37:46.140Z,89.20
2017-07-02T10:40:13.709Z,89.60
2017-07-02T10:42:41.274Z,87.80
2017-07-02T10:45:09.143Z,88.40
2017-07-02T10:47:36.702Z,89.20
2017-07-02T10:50:04.281Z,87.40
2017-07-02T10:52:31.887Z,85.60
2017-07-02T10:54:59.480Z,85.10
2017-07-02T10:57:27.044Z,83.60
2017-07-02T10:59:54.614Z,81.70
2017-07-02T11:02:22.194Z,82.80
2017-07-02T11:04:49.789Z,84.50
2017-07-02T11:07:17.656Z,84.20
2017-07-02T11:09:45.208Z,83.20
2017-07-02T11:12:12.770Z,81.80
2017-07-02T11:14:40.347Z,81.70
2017-07-02T11:17:07.909Z,79.80
2017-07-02T11:19:35.509Z,79.60
2017-07-02T11:22:03.840Z,79.30
2017-07-02T11:24:31.421Z,79.00
2017-07-02T11:26:59.012Z,77.70
2017-07-02T11:29:26.591Z,77.50
2017-07-02T11:31:54.151Z,78.30
2017-07-02T11:34:22.012Z,77.10
2017-07-02T11:36:49.569Z,78.10
2017-07-02T11:39:17.162Z,76.50
2017-07-02T11:41:44.740Z,74.80
2017-07-02T11:44:12.297Z,74.10
2017-07-02T11:46:39.893Z,76.00
2017-07-02T11:49:08.216Z,74.50
2017-07-02T11:51:35.811Z,74.40
2017-07-02T11:54:03.382Z,73.00
2017-07-02T11:56:32.278Z,71.40
2017-07-02T11:59:00.626Z,70.30
2017-07-02T12:01:28.205Z,70.30
2017-07-02T12:03:56.570Z,69.70
2017-07-02T12:06:24.122Z,69.60
2017-07-02T12:08:51.700Z,69.20
2017-07-02T12:11:20.034Z,71.10
2017-07-02T12:13:47.912Z,71.10
2017-07-02T12:16:15.483Z,72.70
2017-07-02T12:18:43.060Z,73.80
2017-07-02T12:21:10.645Z,72.90
2017-07-02T12:23:38.275Z,73.50
2017-07-02T12:26:05.878Z,73.40
2017-07-02T12:28:33.475Z,72.70
2017-07-02T12:31:01.354Z,73.30
2017-07-02T12:33:28.935Z,72.70
2017-07-02T12:35:57.287Z,72.00
2017-07-02T12:38:24.866Z,72.00
2017-07-02T12:40:52.443Z,72.60
2017-07-02T12:43:20.051Z,73.10
2017-07-02T12:45:47.624Z,73.50
2017-07-02T12:48:15.562Z,74.60
2017-07-02T12:50:43.130Z,75.40
2017-07-02T12:53:10.716Z,75.50
2017-07-02T12:55:38.301Z,76.60
2017-07-02T12:58:05.884Z,76.80
2017-07-02T13:00:33.485Z,77.80
2017-07-02T13:03:01.120Z,76.30
2017-07-02T13:05:29.001Z,76.40
2017-07-02T13:07:56.567Z,74.60
2017-07-02T13:10:24.140Z,75.10
2017-07-02T13:12:51.722Z,75.40
2017-07-02T13:15:19.290Z,73.90
2017-07-02T13:17:46.871Z,71.80
2017-07-02T13:20:14.442Z,69.30
2017-07-02T13:22:42.033Z,69.20
2017-07-02T13:25:09.597Z,70.00
2017-07-02T13:27:38.238Z,70.10
2017-07-02T13:30:05.817Z,70.70
2017-07-02T13:32:33.390Z,70.90
2017-07-02T13:35:01.152Z,72.00
2017-07-02T13:37:28.800Z,72.40
2017-07-02T13:39:56.420Z,73.60
2017-07-02T13:42:23.988Z,72.90
2017-07-02T13:44:51.573Z,72.00
2017-07-02T13:47:19.127Z,71.60
2017-07-02T13:49:46.992Z,70.90
2017-07-02T13:52:14.570Z,70.70
2017-07-02T13:54:42.149Z,70.50
2017-07-02T13:57:10.508Z,70.10
2017-07-02T13:59:38.078Z,70.00
2017-07-02T14:02:05.669Z,69.80
2017-07-02T14:04:33.246Z,70.40
2017-07-02T14:07:01.120Z,69.10
2017-07-02T14:09:28.698Z,68.30
2017-07-02T14:11:56.265Z,69.20
2017-07-02T14:14:23.870Z,68.50
2017-07-02T14:16:51.459Z,67.10
2017-07-02T14:19:19.341Z,67.50
2017-07-02T14:21:47.107Z,66.40
2017-07-02T14:24:15.506Z,66.90
2017-07-02T14:26:43.123Z,66.90
2017-07-02T14:29:10.777Z,66.90
2017-07-02T14:31:38.436Z,67.00
2017-07-02T14:34:06.019Z,66.90
2017-07-02T14:36:33.619Z,66.70
2017-07-02T14:39:01.954Z,67.80
2017-07-02T14:41:29.523Z,67.80
2017-07-02T14:43:57.132Z,69.70
2017-07-02T14:46:24.694Z,69.60
2017-07-02T14:48:52.286Z,70.60
2017-07-02T14:51:19.860Z,71.10
2017-07-02T14:53:47.975Z,71.50
2017-07-02T14:56:15.549Z,72.00
2017-07-02T14:58:43.133Z,76.10
2017-07-02T15:01:10.749Z,78.30
2017-07-02T15:03:38.327Z,79.50
2017-07-02T15:06:05.900Z,79.80
2017-07-02T15:08:33.482Z,80.10
2017-07-02T15:11:01.333Z,78.30
2017-07-02T15:13:28.896Z,75.30
2017-07-02T15:15:56.464Z,74.80
2017-07-02T15:18:24.052Z,74.30
2017-07-02T15:20:52.412Z,74.60
2017-07-02T15:23:19.999Z,74.50
2017-07-02T15:25:47.586Z,74.10
2017-07-02T15:28:15.466Z,74.20
2017-07-02T15:30:43.044Z,75.20
2017-07-02T15:33:10.636Z,76.40
2017-07-02T15:35:38.979Z,78.40
2017-07-02T15:38:06.555Z,78.40
2017-07-02T15:40:34.133Z,79.00
2017-07-02T15:43:02.477Z,84.10
2017-07-02T15:45:30.348Z,83.90
2017-07-02T15:47:57.943Z,86.70
2017-07-02T15:50:25.518Z,87.60
2017-07-02T15:52:53.216Z,90.00
2017-07-02T15:55:20.802Z,89.80
2017-07-02T15:57:49.216Z,90.10
2017-07-02T16:00:16.868Z,90.10
2017-07-02T16:02:44.706Z,90.60
2017-07-02T16:05:13.043Z,90.50
2017-07-02T16:07:40.707Z,90.40
2017-07-02T16:10:08.293Z,88.30
2017-07-02T16:12:35.861Z,88.80
2017-07-02T16:15:04.676Z,87.10
2017-07-02T16:17:32.410Z,87.10
2017-07-02T16:20:00.023Z,87.50
2017-07-02T16:22:27.621Z,86.30
2017-07-02T16:24:55.188Z,85.50
2017-07-02T16:27:23.141Z,87.70
2017-07-02T16:29:50.852Z,87.10
2017-07-02T16:32:18.677Z,87.20
2017-07-02T16:34:46.342Z,89.00
2017-07-02T16:37:14.743Z,88.30
2017-07-02T16:39:42.753Z,88.30
2017-07-02T16:42:10.330Z,86.80
2017-07-02T16:44:38.035Z,84.20
2017-07-02T16:47:05.654Z,82.10
2017-07-02T16:49:33.278Z,81.50
2017-07-02T16:52:01.289Z,81.20
2017-07-02T16:54:28.910Z,81.60
2017-07-02T16:56:56.534Z,82.60
2017-07-02T16:59:24.871Z,82.80
2017-07-02T17:01:52.642Z,82.80
2017-07-02T17:04:21.025Z,83.70
2017-07-02T17:06:48.636Z,82.90
2017-07-02T17:09:16.862Z,82.20
2017-07-02T17:11:44.479Z,81.30
2017-07-02T17:14:12.043Z,81.70
2017-07-02T17:16:39.631Z,82.50
2017-07-02T17:19:07.385Z,83.20
2017-07-02T17:21:34.988Z,83.80
2017-07-02T17:24:02.557Z,84.40
2017-07-02T17:26:30.643Z,84.50
2017-07-02T17:28:58.378Z,84.90
2017-07-02T17:31:25.951Z,85.10
2017-07-02T17:33:53.543Z,84.60
2017-07-02T17:36:21.101Z,85.20
2017-07-02T17:38:48.698Z,85.70
2017-07-02T17:41:16.292Z,86.10
2017-07-02T17:43:44.151Z,86.00
2017-07-02T17:46:11.775Z,86.20
2017-07-02T17:48:39.512Z,86.20
2017-07-02T17:51:07.961Z,87.40
2017-07-02T17:53:35.575Z,86.50
2017-07-02T17:56:03.168Z,86.70
2017-07-02T17:58:31.540Z,86.80
2017-07-02T18:01:00.187Z,87.00
2017-07-02T18:03:27.775Z,87.00
2017-07-02T18:05:56.119Z,87.60
2017-07-02T18:08:23.812Z,87.30
2017-07-02T18:10:51.416Z,87.20
2017-07-02T18:13:19.138Z,87.20
2017-07-02T18:15:47.782Z,87.40
2017-07-02T18:18:16.607Z,88.10
2017-07-02T18:20:44.949Z,88.10
2017-07-02T18:23:12.537Z,88.10
2017-07-02T18:25:40.121Z,87.70
2017-07-02T18:28:08.456Z,89.50
2017-07-02T18:30:36.033Z,88.60
2017-07-02T18:33:03.639Z,88.60
2017-07-02T18:35:31.550Z,88.30
2017-07-02T18:37:59.913Z,89.10
2017-07-02T18:40:27.484Z,89.10
2017-07-02T18:42:55.115Z,89.70
2017-07-02T18:45:22.695Z,90.20
2017-07-02T18:47:50.296Z,90.30
2017-07-02T18:50:17.866Z,90.50
2017-07-02T18:52:45.774Z,90.30
2017-07-02T18:55:13.382Z,90.50
2017-07-02T18:57:40.997Z,90.40
2017-07-02T19:00:08.669Z,90.40
2017-07-02T19:02:36.276Z,90.20
2017-07-02T19:05:04.168Z,90.30
2017-07-02T19:07:31.735Z,90.00
2017-07-02T19:09:59.308Z,90.10
2017-07-02T19:12:26.976Z,90.80
2017-07-02T19:14:54.605Z,91.00
2017-07-02T19:17:22.286Z,91.30
2017-07-02T19:19:49.891Z,92.10
2017-07-02T19:22:17.847Z,92.20
2017-07-02T19:24:46.213Z,92.50
2017-07-02T19:27:13.816Z,92.50
2017-07-02T19:29:41.714Z,92.60
2017-07-02T19:32:09.340Z,92.60
2017-07-02T19:34:37.028Z,92.50
2017-07-02T19:37:04.636Z,92.70
2017-07-02T19:39:32.266Z,93.00
2017-07-02T19:41:59.874Z,93.10
2017-07-02T19:44:27.901Z,93.30
2017-07-02T19:46:55.525Z,93.30
2017-07-02T19:49:23.130Z,93.50
2017-07-02T19:51:51.473Z,93.90
2017-07-02T19:54:19.053Z,93.40
2017-07-02T19:56:46.705Z,93.30
2017-07-02T19:59:14.344Z,93.70
2017-07-02T20:01:42.233Z,93.80
2017-07-02T20:04:09.855Z,93.60
2017-07-02T20:06:37.455Z,93.50
2017-07-02T20:09:05.074Z,93.60
2017-07-02T20:11:32.665Z,93.80
2017-07-02T20:14:00.260Z,93.60
2017-07-02T20:16:28.603Z,93.50
2017-07-02T20:18:56.572Z,93.10
2017-07-02T20:21:24.143Z,93.20
2017-07-02T20:23:51.728Z,93.30
2017-07-02T20:26:20.103Z,92.40
2017-07-02T20:28:48.463Z,92.40
2017-07-02T20:31:16.102Z,92.40
2017-07-02T20:33:43.684Z,92.60
2017-07-02T20:36:12.328Z,92.90
2017-07-02T20:38:39.892Z,92.90
2017-07-02T20:41:07.448Z,92.80
2017-07-02T20:43:35.063Z,92.80
2017-07-02T20:46:03.406Z,92.10
2017-07-02T20:48:30.991Z,92.10
2017-07-02T20:50:59.328Z,92.00
2017-07-02T20:53:27.779Z,91.80
2017-07-02T20:55:55.352Z,91.30
2017-07-02T20:58:22.941Z,91.70
2017-07-02T21:00:50.517Z,91.70
2017-07-02T21:03:18.098Z,91.60
2017-07-02T21:05:45.686Z,91.90
2017-07-02T21:08:13.257Z,91.90
2017-07-02T21:10:41.147Z,92.10
2017-07-02T21:13:08.743Z,92.30
2017-07-02T21:15:37.128Z,92.90
2017-07-02T21:18:04.697Z,92.60
2017-07-02T21:20:32.283Z,92.70
2017-07-02T21:22:59.862Z,93.10
2017-07-02T21:25:27.422Z,93.00
2017-07-02T21:27:55.040Z,92.90
2017-07-02T21:30:22.628Z,93.50
2017-07-02T21:32:50.504Z,93.10
2017-07-02T21:35:18.083Z,93.10
2017-07-02T21:37:46.442Z,93.10
2017-07-02T21:40:14.046Z,93.10
2017-07-02T21:42:41.665Z,93.20
2017-07-02T21:45:09.255Z,93.00
2017-07-02T21:47:37.609Z,93.20
2017-07-02T21:50:05.546Z,93.20
2017-07-02T21:52:33.143Z,93.30
2017-07-02T21:55:00.721Z,93.20
2017-07-02T21:57:29.067Z,93.30
2017-07-02T21:59:56.624Z,93.30
2017-07-02T22:02:24.190Z,93.40
2017-07-02T22:04:51.750Z,93.30
2017-07-02T22:07:19.702Z,93.40
2017-07-02T22:09:47.276Z,93.40
2017-07-02T22:12:14.837Z,93.40
2017-07-02T22:14:43.221Z,93.70
2017-07-02T22:17:10.798Z,93.30
2017-07-02T22:19:38.409Z,93.30
2017-07-02T22:22:05.989Z,93.20
2017-07-02T22:24:34.616Z,93.20
2017-07-02T22:27:02.176Z,93.20
2017-07-02T22:29:29.851Z,93.10
2017-07-02T22:31:57.441Z,93.20
2017-07-02T22:34:25.025Z,93.10
2017-07-02T22:36:53.364Z,93.30
2017-07-02T22:39:20.934Z,93.30
2017-07-02T22:41:48.790Z,93.40
2017-07-02T22:44:16.352Z,93.20
2017-07-02T22:46:43.915Z,93.20
2017-07-02T22:49:11.495Z,93.00
2017-07-02T22:51:39.824Z,93.00
2017-07-02T22:54:07.433Z,93.00
2017-07-02T22:56:35.785Z,92.80
2017-07-02T22:59:03.728Z,92.80
2017-07-02T23:01:31.290Z,92.80
2017-07-02T23:03:58.868Z,92.60
2017-07-02T23:06:26.467Z,92.70
2017-07-02T23:08:54.024Z,92.50
2017-07-02T23:11:22.369Z,92.60
2017-07-02T23:13:49.924Z,92.60
2017-07-02T23:16:17.770Z,92.40
2017-07-02T23:18:45.360Z,92.50
2017-07-02T23:21:12.936Z,92.50
2017-07-02T23:23:41.268Z,92.60
2017-07-02T23:26:08.826Z,92.60
2017-07-02T23:28:36.390Z,92.40
2017-07-02T23:31:03.950Z,92.50
2017-07-02T23:33:31.815Z,92.20
2017-07-02T23:35:59.388Z,92.10
2017-07-02T23:38:26.976Z,92.00
2017-07-02T23:40:55.320Z,92.10
2017-07-02T23:43:22.906Z,92.00
2017-07-02T23:45:51.243Z,91.90
2017-07-02T23:48:18.830Z,91.90
2017-07-02T23:50:46.415Z,92.20
2017-07-02T23:53:13.995Z,92.40
2017-07-02T23:55:41.889Z,92.60
2017-07-02T23:58:09.479Z,92.70
